createdAt,value
2018-05-01T00:01:09.942Z,941.10
2018-05-01T00:01:48.937Z,941.12
2018-05-01T00:02:48.937Z,941.12
2018-05-01T00:03:48.947Z,941.10
2018-05-01T00:04:48.953Z,941.10
2018-05-01T00:05:49.065Z,941.06
2018-05-01T00:07:09.916Z,941.03
2018-05-01T00:07:48.929Z,941.00
2018-05-01T00:08:48.925Z,940.98
2018-05-01T00:09:48.923Z,940.97
2018-05-01T00:10:48.888Z,940.95
2018-05-01T00:11:48.885Z,940.98
2018-05-01T00:13:09.889Z,940.95
2018-05-01T00:13:48.920Z,940.98
2018-05-01T00:14:48.918Z,940.99
2018-05-01T00:15:48.868Z,940.99
2018-05-01T00:16:48.876Z,941.03
2018-05-01T00:17:48.901Z,941.02
2018-05-01T00:19:09.839Z,940.98
2018-05-01T00:19:48.846Z,941.02
2018-05-01T00:20:48.864Z,941.01
2018-05-01T00:21:48.836Z,941.05
2018-05-01T00:22:48.868Z,941.00
2018-05-01T00:23:48.889Z,941.05
2018-05-01T00:25:09.816Z,941.05
2018-05-01T00:25:48.830Z,941.03
2018-05-01T00:26:48.812Z,941.00
2018-05-01T00:27:48.823Z,941.00
2018-05-01T00:28:48.830Z,941.04
2018-05-01T00:29:48.826Z,941.02
2018-05-01T00:31:09.831Z,941.01
2018-05-01T00:31:48.827Z,941.01
2018-05-01T00:32:48.836Z,940.97
2018-05-01T00:33:48.816Z,940.94
2018-05-01T00:34:48.833Z,940.96
2018-05-01T00:35:48.818Z,940.95
2018-05-01T00:37:09.793Z,940.95
2018-05-01T00:37:48.758Z,940.96
2018-05-01T00:38:48.786Z,940.93
2018-05-01T00:39:48.791Z,940.91
2018-05-01T00:40:48.785Z,940.88
2018-05-01T00:41:48.726Z,940.91
2018-05-01T00:43:09.724Z,940.94
2018-05-01T00:43:48.728Z,940.95
2018-05-01T00:44:48.729Z,940.97
2018-05-01T00:45:48.725Z,940.92
2018-05-01T00:46:48.737Z,940.95
2018-05-01T00:47:48.721Z,940.93
2018-05-01T00:49:09.675Z,940.93
2018-05-01T00:49:48.752Z,940.91
2018-05-01T00:50:48.707Z,940.94
2018-05-01T00:51:48.745Z,940.92
2018-05-01T00:52:48.725Z,940.92
2018-05-01T00:53:48.694Z,940.94
2018-05-01T00:55:09.649Z,940.92
2018-05-01T00:55:48.660Z,940.91
2018-05-01T00:56:48.687Z,940.92
2018-05-01T00:57:48.692Z,940.95
2018-05-01T00:58:48.631Z,940.91
2018-05-01T00:59:48.634Z,940.95
2018-05-01T01:01:09.617Z,940.93
2018-05-01T01:01:48.615Z,940.92
2018-05-01T01:02:48.678Z,940.89
2018-05-01T01:03:48.633Z,940.89
2018-05-01T01:04:48.634Z,940.88
2018-05-01T01:05:48.634Z,940.85
2018-05-01T01:07:09.583Z,940.86
2018-05-01T01:07:48.599Z,940.85
2018-05-01T01:08:48.597Z,940.85
2018-05-01T01:09:48.620Z,940.87
2018-05-01T01:10:48.571Z,940.84
2018-05-01T01:11:48.575Z,940.87
2018-05-01T01:13:09.551Z,940.88
2018-05-01T01:13:48.597Z,940.87
2018-05-01T01:14:48.600Z,940.87
2018-05-01T01:15:48.549Z,940.86
2018-05-01T01:16:48.560Z,940.86
2018-05-01T01:17:48.546Z,940.86
2018-05-01T01:19:09.527Z,940.86
2018-05-01T01:19:48.538Z,940.87
2018-05-01T01:20:48.546Z,940.84
2018-05-01T01:21:48.530Z,940.87
2018-05-01T01:22:48.577Z,940.88
2018-05-01T01:23:48.570Z,940.91
2018-05-01T01:25:09.577Z,940.90
2018-05-01T01:25:48.499Z,940.97
2018-05-01T01:26:48.478Z,940.98
2018-05-01T01:27:48.487Z,940.95
2018-05-01T01:28:48.493Z,940.98
2018-05-01T01:29:48.501Z,940.99
2018-05-01T02:02:40.975Z,940.90
2018-05-01T02:03:40.937Z,940.95
2018-05-01T02:05:33.877Z,940.96
2018-05-01T02:06:33.838Z,940.95
2018-05-01T02:08:26.896Z,940.98
2018-05-01T02:09:26.863Z,940.99
2018-05-01T02:11:19.776Z,941.01
2018-05-01T02:12:19.747Z,941.02
2018-05-01T02:14:12.697Z,941.03
2018-05-01T02:15:12.738Z,941.03
2018-05-01T02:17:05.627Z,940.98
2018-05-01T02:18:05.598Z,941.00
2018-05-01T02:19:58.531Z,940.98
2018-05-01T02:20:58.513Z,940.96
2018-05-01T02:22:51.409Z,940.98
2018-05-01T02:23:51.401Z,940.99
2018-05-01T02:25:44.350Z,941.04
2018-05-01T02:26:44.306Z,941.05
2018-05-01T02:28:37.272Z,941.03
2018-05-01T02:29:37.245Z,941.03
2018-05-01T02:31:30.237Z,941.07
2018-05-01T02:32:30.219Z,941.09
2018-05-01T02:34:23.174Z,941.11
2018-05-01T02:35:23.161Z,941.08
2018-05-01T02:37:16.144Z,941.11
2018-05-01T02:38:16.142Z,941.12
2018-05-01T02:40:09.077Z,941.12
2018-05-01T02:41:09.132Z,941.08
2018-05-01T02:42:09.033Z,941.12
2018-05-01T02:43:09.035Z,941.10
2018-05-01T02:44:09.054Z,941.10
2018-05-01T02:45:09.026Z,941.16
2018-05-01T02:46:09.020Z,941.14
2018-05-01T02:47:09.019Z,941.14
2018-05-01T02:48:08.997Z,941.12
2018-05-01T02:49:09.002Z,941.15
2018-05-01T02:50:08.993Z,941.14
2018-05-01T02:51:08.988Z,941.14
2018-05-01T02:52:08.990Z,941.13
2018-05-01T02:53:08.982Z,941.14
2018-05-01T02:54:08.970Z,941.15
2018-05-01T02:55:08.969Z,941.07
2018-05-01T02:56:08.964Z,941.12
2018-05-01T02:57:08.955Z,941.10
2018-05-01T02:58:08.955Z,941.11
2018-05-01T02:59:08.945Z,941.08
2018-05-01T03:00:08.939Z,941.13
2018-05-01T03:01:08.954Z,941.06
2018-05-01T03:02:08.918Z,941.11
2018-05-01T03:03:08.924Z,941.06
2018-05-01T03:04:08.921Z,941.06
2018-05-01T03:05:08.916Z,941.03
2018-05-01T03:06:08.912Z,941.08
2018-05-01T03:07:08.903Z,941.08
2018-05-01T03:08:08.897Z,941.08
2018-05-01T03:09:08.884Z,941.07
2018-05-01T03:10:08.885Z,941.07
2018-05-01T03:11:08.868Z,941.06
2018-05-01T03:12:08.879Z,941.04
2018-05-01T03:13:08.865Z,941.09
2018-05-01T03:14:08.864Z,941.11
2018-05-01T03:15:08.851Z,941.10
2018-05-01T03:16:08.847Z,941.07
2018-05-01T03:17:08.835Z,941.06
2018-05-01T03:18:08.839Z,941.06
2018-05-01T03:19:08.832Z,941.04
2018-05-01T03:20:08.826Z,941.04
2018-05-01T03:21:08.820Z,941.09
2018-05-01T03:22:08.811Z,941.07
2018-05-01T03:23:08.819Z,941.10
2018-05-01T03:24:08.804Z,941.09
2018-05-01T03:25:08.803Z,941.09
2018-05-01T03:26:08.791Z,941.12
2018-05-01T03:27:08.791Z,941.12
2018-05-01T03:28:08.776Z,941.14
2018-05-01T03:29:08.778Z,941.15
2018-05-01T03:30:08.764Z,941.18
2018-05-01T03:31:08.775Z,941.19
2018-05-01T03:32:08.760Z,941.17
2018-05-01T03:33:08.755Z,941.19
2018-05-01T03:34:08.744Z,941.17
2018-05-01T03:35:08.737Z,941.16
2018-05-01T03:36:08.747Z,941.19
2018-05-01T03:37:08.743Z,941.21
2018-05-01T03:38:08.761Z,941.20
2018-05-01T03:39:08.803Z,941.18
2018-05-01T03:40:08.713Z,941.13
2018-05-01T03:41:08.703Z,941.15
2018-05-01T03:42:08.697Z,941.20
2018-05-01T03:43:08.703Z,941.16
2018-05-01T03:44:08.693Z,941.20
2018-05-01T03:45:08.675Z,941.23
2018-05-01T03:46:08.726Z,941.26
2018-05-01T03:47:08.670Z,941.29
2018-05-01T03:48:08.670Z,941.28
2018-05-01T03:49:08.659Z,941.33
2018-05-01T03:50:08.651Z,941.33
2018-05-01T03:51:08.659Z,941.39
2018-05-01T03:52:08.639Z,941.37
2018-05-01T03:53:08.650Z,941.36
2018-05-01T03:54:08.629Z,941.40
2018-05-01T03:55:08.630Z,941.39
2018-05-01T03:56:08.645Z,941.37
2018-05-01T03:57:08.611Z,941.38
2018-05-01T03:58:08.605Z,941.38
2018-05-01T03:59:08.606Z,941.41
2018-05-01T04:00:08.604Z,941.39
2018-05-01T04:01:08.590Z,941.42
2018-05-01T04:02:08.590Z,941.39
2018-05-01T04:03:08.579Z,941.43
2018-05-01T04:04:08.576Z,941.46
2018-05-01T04:05:08.569Z,941.40
2018-05-01T04:06:08.562Z,941.46
2018-05-01T04:07:08.559Z,941.42
2018-05-01T04:08:08.545Z,941.45
2018-05-01T04:09:08.549Z,941.43
2018-05-01T04:10:08.544Z,941.44
2018-05-01T04:11:08.534Z,941.42
2018-05-01T04:12:08.523Z,941.44
2018-05-01T04:13:08.528Z,941.47
2018-05-01T04:14:08.517Z,941.45
2018-05-01T04:15:08.528Z,941.45
2018-05-01T04:16:08.503Z,941.47
2018-05-01T04:17:08.500Z,941.44
2018-05-01T04:18:08.489Z,941.40
2018-05-01T04:19:08.483Z,941.41
2018-05-01T04:20:08.485Z,941.44
2018-05-01T04:21:08.472Z,941.41
2018-05-01T04:22:08.488Z,941.42
2018-05-01T04:23:08.470Z,941.39
2018-05-01T04:24:08.472Z,941.47
2018-05-01T04:25:08.455Z,941.42
2018-05-01T04:26:08.443Z,941.46
2018-05-01T04:27:08.447Z,941.44
2018-05-01T04:28:08.434Z,941.47
2018-05-01T04:29:08.435Z,941.49
2018-05-01T04:30:08.421Z,941.51
2018-05-01T04:31:08.419Z,941.53
2018-05-01T04:32:08.406Z,941.53
2018-05-01T04:33:08.402Z,941.54
2018-05-01T04:34:08.399Z,941.58
2018-05-01T04:35:08.394Z,941.58
2018-05-01T04:36:08.385Z,941.55
2018-05-01T04:37:08.382Z,941.58
2018-05-01T04:38:08.370Z,941.52
2018-05-01T04:39:08.389Z,941.62
2018-05-01T04:40:08.367Z,941.60
2018-05-01T04:41:08.348Z,941.57
2018-05-01T04:42:08.351Z,941.60
2018-05-01T04:43:08.353Z,941.62
2018-05-01T04:44:08.341Z,941.61
2018-05-01T04:45:08.325Z,941.67
2018-05-01T04:46:08.322Z,941.65
2018-05-01T04:47:08.316Z,941.64
2018-05-01T04:48:08.313Z,941.69
2018-05-01T04:49:08.302Z,941.74
2018-05-01T04:50:08.292Z,941.77
2018-05-01T04:51:08.283Z,941.82
2018-05-01T04:52:08.306Z,941.84
2018-05-01T04:53:08.279Z,941.90
2018-05-01T04:54:08.287Z,941.91
2018-05-01T04:55:08.278Z,941.93
2018-05-01T04:56:08.306Z,941.93
2018-05-01T04:57:08.251Z,941.91
2018-05-01T04:58:08.255Z,941.96
2018-05-01T04:59:08.255Z,941.98
2018-05-01T05:00:08.255Z,941.96
2018-05-01T05:01:08.992Z,941.96
2018-05-01T05:02:08.245Z,941.93
2018-05-01T05:03:08.217Z,941.93
2018-05-01T05:04:08.215Z,941.95
2018-05-01T05:05:08.204Z,942.00
2018-05-01T05:06:08.207Z,942.00
2018-05-01T05:07:08.206Z,941.97
2018-05-01T05:08:08.196Z,941.98
2018-05-01T05:09:08.181Z,941.98
2018-05-01T05:10:08.175Z,941.99
2018-05-01T05:11:08.171Z,941.97
2018-05-01T05:12:08.160Z,942.02
2018-05-01T05:13:08.152Z,942.08
2018-05-01T05:14:08.153Z,942.05
2018-05-01T05:15:08.162Z,942.01
2018-05-01T05:16:08.130Z,942.01
2018-05-01T05:17:08.167Z,942.06
2018-05-01T05:18:08.129Z,942.07
2018-05-01T05:19:08.117Z,942.09
2018-05-01T05:20:08.107Z,942.10
2018-05-01T05:21:08.103Z,942.10
2018-05-01T05:22:08.091Z,942.14
2018-05-01T05:23:08.096Z,942.10
2018-05-01T05:24:08.083Z,942.14
2018-05-01T05:25:08.080Z,942.11
2018-05-01T05:26:08.073Z,942.10
2018-05-01T05:27:08.058Z,942.10
2018-05-01T05:28:08.060Z,942.15
2018-05-01T05:29:08.055Z,942.16
2018-05-01T05:30:08.045Z,942.14
2018-05-01T05:31:08.041Z,942.16
2018-05-01T05:32:08.041Z,942.14
2018-05-01T05:33:08.025Z,942.11
2018-05-01T05:34:08.026Z,942.12
2018-05-01T05:35:08.023Z,942.14
2018-05-01T05:36:08.071Z,942.14
2018-05-01T05:37:07.996Z,942.16
2018-05-01T05:38:08.001Z,942.15
2018-05-01T05:39:08.007Z,942.20
2018-05-01T05:40:07.974Z,942.18
2018-05-01T05:41:07.971Z,942.16
2018-05-01T05:42:07.981Z,942.19
2018-05-01T05:43:07.983Z,942.17
2018-05-01T05:44:07.960Z,942.15
2018-05-01T05:45:07.968Z,942.11
2018-05-01T05:46:07.974Z,942.16
2018-05-01T05:47:07.944Z,942.14
2018-05-01T05:48:07.933Z,942.18
2018-05-01T05:49:07.931Z,942.22
2018-05-01T05:50:07.927Z,942.24
2018-05-01T05:51:07.920Z,942.27
2018-05-01T05:52:07.903Z,942.32
2018-05-01T05:53:07.914Z,942.32
2018-05-01T05:54:07.905Z,942.28
2018-05-01T05:55:07.897Z,942.30
2018-05-01T05:56:08.029Z,942.30
2018-05-01T05:57:07.877Z,942.29
2018-05-01T05:58:07.874Z,942.30
2018-05-01T05:59:07.877Z,942.30
2018-05-01T06:00:07.855Z,942.34
2018-05-01T06:01:07.885Z,942.32
2018-05-01T06:02:07.857Z,942.32
2018-05-01T06:03:07.861Z,942.38
2018-05-01T06:04:07.840Z,942.37
2018-05-01T06:05:07.836Z,942.37
2018-05-01T06:06:07.828Z,942.38
2018-05-01T06:07:07.823Z,942.38
2018-05-01T06:08:07.820Z,942.43
2018-05-01T06:09:07.810Z,942.42
2018-05-01T06:10:07.805Z,942.39
2018-05-01T06:11:07.814Z,942.43
2018-05-01T06:12:07.808Z,942.40
2018-05-01T06:13:07.849Z,942.44
2018-05-01T06:14:07.784Z,942.48
2018-05-01T06:15:07.764Z,942.50
2018-05-01T06:16:07.760Z,942.49
2018-05-01T06:17:07.754Z,942.52
2018-05-01T06:18:07.755Z,942.54
2018-05-01T06:19:07.750Z,942.56
2018-05-01T06:20:07.744Z,942.55
2018-05-01T06:21:07.743Z,942.59
2018-05-01T06:22:07.729Z,942.61
2018-05-01T06:23:07.731Z,942.60
2018-05-01T06:24:07.712Z,942.65
2018-05-01T06:25:07.718Z,942.67
2018-05-01T06:26:07.711Z,942.69
2018-05-01T06:27:07.723Z,942.72
2018-05-01T06:28:07.696Z,942.71
2018-05-01T06:29:07.696Z,942.69
2018-05-01T06:30:07.756Z,942.69
2018-05-01T06:31:07.844Z,942.72
2018-05-01T06:32:07.675Z,942.72
2018-05-01T06:33:07.665Z,942.76
2018-05-01T06:34:07.665Z,942.76
2018-05-01T06:35:07.673Z,942.77
2018-05-01T06:36:07.651Z,942.73
2018-05-01T06:37:07.655Z,942.70
2018-05-01T06:38:07.647Z,942.71
2018-05-01T06:39:07.729Z,942.78
2018-05-01T06:40:07.657Z,942.82
2018-05-01T06:41:07.643Z,942.85
2018-05-01T06:42:07.670Z,942.89
2018-05-01T06:43:07.633Z,942.89
2018-05-01T06:44:07.638Z,942.90
2018-05-01T06:45:07.712Z,942.90
2018-05-01T06:46:07.608Z,942.90
2018-05-01T06:47:07.659Z,942.92
2018-05-01T06:48:07.665Z,942.90
2018-05-01T06:49:07.597Z,942.90
2018-05-01T06:50:07.600Z,942.91
2018-05-01T06:51:07.575Z,942.89
2018-05-01T06:52:07.586Z,942.91
2018-05-01T06:53:07.557Z,942.91
2018-05-01T06:54:07.562Z,942.98
2018-05-01T06:55:07.544Z,942.95
2018-05-01T06:56:07.540Z,942.91
2018-05-01T06:57:07.538Z,942.93
2018-05-01T06:58:07.533Z,942.94
2018-05-01T06:59:07.524Z,942.93
2018-05-01T07:00:07.537Z,942.95
2018-05-01T07:01:08.141Z,942.94
2018-05-01T07:02:07.508Z,942.95
2018-05-01T07:03:07.513Z,942.97
2018-05-01T07:04:07.750Z,942.99
2018-05-01T07:05:07.556Z,942.99
2018-05-01T07:06:07.480Z,942.97
2018-05-01T07:07:07.477Z,942.98
2018-05-01T07:08:07.463Z,942.99
2018-05-01T07:09:07.515Z,942.98
2018-05-01T07:10:07.598Z,942.96
2018-05-01T07:11:07.453Z,942.98
2018-05-01T07:12:07.457Z,942.95
2018-05-01T07:13:07.705Z,942.95
2018-05-01T07:14:07.434Z,942.89
2018-05-01T07:15:07.464Z,942.90
2018-05-01T07:16:10.186Z,942.90
2018-05-01T07:17:07.439Z,942.94
2018-05-01T07:18:07.589Z,942.96
2018-05-01T07:19:07.413Z,942.97
2018-05-01T07:20:07.408Z,942.96
2018-05-01T07:21:07.483Z,942.97
2018-05-01T07:22:07.487Z,942.96
2018-05-01T07:23:07.422Z,942.97
2018-05-01T07:24:07.397Z,943.01
2018-05-01T07:25:08.013Z,943.00
2018-05-01T07:26:08.007Z,943.00
2018-05-01T07:27:07.380Z,943.01
2018-05-01T07:28:07.367Z,943.04
2018-05-01T07:29:07.361Z,943.04
2018-05-01T07:30:07.356Z,943.03
2018-05-01T07:31:07.383Z,943.02
2018-05-01T07:32:07.358Z,943.00
2018-05-01T07:33:07.346Z,942.98
2018-05-01T07:34:07.356Z,942.98
2018-05-01T07:35:07.327Z,942.97
2018-05-01T07:36:07.365Z,942.97
2018-05-01T07:37:07.343Z,942.97
2018-05-01T07:38:07.352Z,942.98
2018-05-01T07:39:07.307Z,942.97
2018-05-01T07:40:07.421Z,942.97
2018-05-01T07:41:07.309Z,942.95
2018-05-01T07:42:07.303Z,942.94
2018-05-01T07:43:07.381Z,942.93
2018-05-01T07:44:07.290Z,942.92
2018-05-01T07:45:07.282Z,942.92
2018-05-01T07:46:08.009Z,942.91
2018-05-01T07:47:07.278Z,942.90
2018-05-01T07:48:07.299Z,942.90
2018-05-01T07:49:07.334Z,942.88
2018-05-01T07:50:07.262Z,942.91
2018-05-01T07:51:07.252Z,942.91
2018-05-01T07:52:07.318Z,942.89
2018-05-01T07:53:07.264Z,942.82
2018-05-01T07:54:07.279Z,942.79
2018-05-01T07:55:07.233Z,942.75
2018-05-01T07:56:07.234Z,942.79
2018-05-01T07:57:07.217Z,942.75
2018-05-01T07:58:07.427Z,942.75
2018-05-01T07:59:07.219Z,942.69
2018-05-01T08:00:07.208Z,942.70
2018-05-01T08:01:08.015Z,942.65
2018-05-01T08:02:08.069Z,942.62
2018-05-01T08:03:07.212Z,942.63
2018-05-01T08:04:07.201Z,942.72
2018-05-01T08:05:08.110Z,942.74
2018-05-01T08:06:08.188Z,942.85
2018-05-01T08:07:08.092Z,942.93
2018-05-01T08:08:07.205Z,942.98
2018-05-01T08:09:07.485Z,943.03
2018-05-01T08:10:07.198Z,943.06
2018-05-01T08:11:07.214Z,943.06
2018-05-01T08:12:07.285Z,943.05
2018-05-01T08:13:09.024Z,943.05
2018-05-01T08:14:07.256Z,943.08
2018-05-01T08:15:07.224Z,943.13
2018-05-01T08:16:07.182Z,943.16
2018-05-01T08:17:07.184Z,943.18
2018-05-01T08:18:07.179Z,943.25
2018-05-01T08:19:07.187Z,943.30
2018-05-01T08:20:07.149Z,943.33
2018-05-01T08:21:07.163Z,943.31
2018-05-01T08:22:07.156Z,943.35
2018-05-01T08:23:07.184Z,943.30
2018-05-01T08:24:07.181Z,943.30
2018-05-01T08:25:07.134Z,943.29
2018-05-01T08:26:07.217Z,943.28
2018-05-01T08:27:07.179Z,943.26
2018-05-01T08:28:07.169Z,943.19
2018-05-01T08:29:07.111Z,943.17
2018-05-01T08:30:07.127Z,943.21
2018-05-01T08:31:07.128Z,943.18
2018-05-01T08:32:07.138Z,943.21
2018-05-01T08:33:07.108Z,943.22
2018-05-01T08:34:07.139Z,943.23
2018-05-01T08:35:07.156Z,943.27
2018-05-01T08:36:07.164Z,943.24
2018-05-01T08:37:07.120Z,943.25
2018-05-01T08:38:07.100Z,943.31
2018-05-01T08:39:07.107Z,943.32
2018-05-01T08:40:07.346Z,943.32
2018-05-01T08:41:07.097Z,943.36
2018-05-01T08:42:07.111Z,943.37
2018-05-01T08:43:07.702Z,943.39
2018-05-01T08:44:07.109Z,943.50
2018-05-01T08:45:07.118Z,943.47
2018-05-01T08:46:07.183Z,943.52
2018-05-01T08:47:07.059Z,943.55
2018-05-01T08:48:07.112Z,943.58
2018-05-01T08:49:07.102Z,943.65
2018-05-01T08:50:07.107Z,943.65
2018-05-01T08:51:07.044Z,943.72
2018-05-01T08:52:07.584Z,943.73
2018-05-01T08:53:07.076Z,943.75
2018-05-01T08:54:07.052Z,943.75
2018-05-01T08:55:07.120Z,943.75
2018-05-01T08:56:07.094Z,943.75
2018-05-01T08:57:07.036Z,943.75
2018-05-01T08:58:07.034Z,943.78
2018-05-01T08:59:07.028Z,943.79
2018-05-01T09:00:07.055Z,943.84
2018-05-01T09:01:07.590Z,943.79
2018-05-01T09:02:07.044Z,943.81
2018-05-01T09:03:07.022Z,943.80
2018-05-01T09:04:07.033Z,943.82
2018-05-01T09:05:07.044Z,943.70
2018-05-01T09:06:07.053Z,943.67
2018-05-01T09:07:06.994Z,943.65
2018-05-01T09:08:07.022Z,943.64
2018-05-01T09:09:06.994Z,943.62
2018-05-01T09:10:06.995Z,943.68
2018-05-01T09:11:07.000Z,943.69
2018-05-01T09:12:06.971Z,943.74
2018-05-01T09:13:07.018Z,943.71
2018-05-01T09:14:07.010Z,943.69
2018-05-01T09:15:07.644Z,943.71
2018-05-01T09:16:07.109Z,943.74
2018-05-01T09:17:07.002Z,943.78
2018-05-01T09:18:07.173Z,943.79
2018-05-01T09:19:06.975Z,943.76
2018-05-01T09:20:06.967Z,943.77
2018-05-01T09:21:06.978Z,943.75
2018-05-01T09:22:07.014Z,943.79
2018-05-01T09:23:06.961Z,943.87
2018-05-01T09:24:07.004Z,943.87
2018-05-01T09:25:06.964Z,943.90
2018-05-01T09:26:06.973Z,943.89
2018-05-01T09:27:06.966Z,943.91
2018-05-01T09:28:06.974Z,943.93
2018-05-01T09:29:07.012Z,943.87
2018-05-01T09:30:07.000Z,943.83
2018-05-01T09:31:06.945Z,943.82
2018-05-01T09:32:06.950Z,943.83
2018-05-01T09:33:06.960Z,943.81
2018-05-01T09:34:06.968Z,943.82
2018-05-01T09:35:06.928Z,943.86
2018-05-01T09:36:06.968Z,943.87
2018-05-01T09:37:06.936Z,943.92
2018-05-01T09:38:06.946Z,943.90
2018-05-01T09:39:06.964Z,943.85
2018-05-01T09:40:06.956Z,943.87
2018-05-01T09:41:07.018Z,943.83
2018-05-01T09:42:06.945Z,943.85
2018-05-01T09:43:06.923Z,943.85
2018-05-01T09:44:06.934Z,943.85
2018-05-01T09:45:06.922Z,943.88
2018-05-01T09:46:06.948Z,943.87
2018-05-01T09:47:06.927Z,943.89
2018-05-01T09:48:06.925Z,943.97
2018-05-01T09:49:06.962Z,943.93
2018-05-01T09:50:06.933Z,943.94
2018-05-01T09:51:06.956Z,943.95
2018-05-01T09:52:06.940Z,943.97
2018-05-01T09:53:06.947Z,944.00
2018-05-01T09:54:06.912Z,943.99
2018-05-01T09:55:06.888Z,944.01
2018-05-01T09:56:06.898Z,943.99
2018-05-01T09:57:06.922Z,943.99
2018-05-01T09:58:06.920Z,944.04
2018-05-01T09:59:06.944Z,944.01
2018-05-01T10:00:06.915Z,943.98
2018-05-01T10:01:06.901Z,943.99
2018-05-01T10:02:06.895Z,943.98
2018-05-01T10:03:06.942Z,943.99
2018-05-01T10:04:06.954Z,943.93
2018-05-01T10:05:07.532Z,943.91
2018-05-01T10:06:07.567Z,943.86
2018-05-01T10:07:06.920Z,943.92
2018-05-01T10:08:06.888Z,943.89
2018-05-01T10:09:06.877Z,943.88
2018-05-01T10:10:06.901Z,943.84
2018-05-01T10:11:06.902Z,943.83
2018-05-01T10:12:06.902Z,943.85
2018-05-01T10:13:06.905Z,943.89
2018-05-01T10:14:06.887Z,943.92
2018-05-01T10:15:06.932Z,943.88
2018-05-01T10:16:06.959Z,943.80
2018-05-01T10:17:06.875Z,943.81
2018-05-01T10:18:06.902Z,943.80
2018-05-01T10:19:06.939Z,943.80
2018-05-01T10:20:06.918Z,943.79
2018-05-01T10:21:06.894Z,943.72
2018-05-01T10:22:06.886Z,943.68
2018-05-01T10:23:06.868Z,943.64
2018-05-01T10:24:06.881Z,943.65
2018-05-01T10:25:06.882Z,943.69
2018-05-01T10:26:06.875Z,943.63
2018-05-01T10:27:06.890Z,943.69
2018-05-01T10:28:06.913Z,943.72
2018-05-01T10:29:06.917Z,943.71
2018-05-01T10:30:06.894Z,943.72
2018-05-01T10:31:06.921Z,943.72
2018-05-01T10:32:06.899Z,943.68
2018-05-01T10:33:06.904Z,943.62
2018-05-01T10:34:06.929Z,943.58
2018-05-01T10:35:06.940Z,943.61
2018-05-01T10:36:06.950Z,943.62
2018-05-01T10:37:06.904Z,943.66
2018-05-01T10:38:06.958Z,943.67
2018-05-01T10:39:06.942Z,943.63
2018-05-01T10:40:06.972Z,943.62
2018-05-01T10:41:06.896Z,943.61
2018-05-01T10:42:06.891Z,943.55
2018-05-01T10:43:06.906Z,943.57
2018-05-01T10:44:06.991Z,943.55
2018-05-01T10:45:06.921Z,943.52
2018-05-01T10:46:06.978Z,943.56
2018-05-01T10:47:06.931Z,943.52
2018-05-01T10:48:06.933Z,943.51
2018-05-01T10:49:06.937Z,943.47
2018-05-01T10:50:06.949Z,943.50
2018-05-01T10:51:06.956Z,943.47
2018-05-01T10:52:06.961Z,943.47
2018-05-01T10:53:06.986Z,943.46
2018-05-01T10:54:06.985Z,943.48
2018-05-01T10:55:06.992Z,943.48
2018-05-01T10:56:07.047Z,943.51
2018-05-01T10:57:07.086Z,943.46
2018-05-01T10:58:07.057Z,943.49
2018-05-01T10:59:07.024Z,943.54
2018-05-01T11:00:07.023Z,943.50
2018-05-01T11:01:07.059Z,943.51
2018-05-01T11:02:07.009Z,943.51
2018-05-01T11:03:07.461Z,943.48
2018-05-01T11:04:07.049Z,943.51
2018-05-01T11:05:07.049Z,943.47
2018-05-01T11:06:07.067Z,943.49
2018-05-01T11:07:07.058Z,943.51
2018-05-01T11:08:07.056Z,943.58
2018-05-01T11:09:07.080Z,943.59
2018-05-01T11:10:07.085Z,943.62
2018-05-01T11:11:07.095Z,943.64
2018-05-01T11:12:07.097Z,943.63
2018-05-01T11:13:07.100Z,943.66
2018-05-01T11:14:07.095Z,943.70
2018-05-01T11:15:07.210Z,943.60
2018-05-01T11:16:07.130Z,943.60
2018-05-01T11:17:07.126Z,943.62
2018-05-01T11:18:09.635Z,943.61
2018-05-01T11:19:07.696Z,943.59
2018-05-01T11:20:07.160Z,943.61
2018-05-01T11:21:07.145Z,943.55
2018-05-01T11:22:07.169Z,943.61
2018-05-01T11:23:07.189Z,943.59
2018-05-01T11:24:07.192Z,943.55
2018-05-01T11:25:07.205Z,943.53
2018-05-01T11:26:07.313Z,943.51
2018-05-01T11:27:07.208Z,943.47
2018-05-01T11:28:07.212Z,943.55
2018-05-01T11:29:07.220Z,943.60
2018-05-01T11:30:07.221Z,943.55
2018-05-01T11:31:07.285Z,943.53
2018-05-01T11:32:07.233Z,943.54
2018-05-01T11:33:07.377Z,943.58
2018-05-01T11:34:07.337Z,943.56
2018-05-01T11:35:07.397Z,943.59
2018-05-01T11:36:07.315Z,943.58
2018-05-01T11:37:07.275Z,943.48
2018-05-01T11:38:07.391Z,943.46
2018-05-01T11:39:07.281Z,943.49
2018-05-01T11:40:07.298Z,943.54
2018-05-01T11:41:07.302Z,943.50
2018-05-01T11:42:07.314Z,943.52
2018-05-01T11:43:07.356Z,943.48
2018-05-01T11:44:07.328Z,943.51
2018-05-01T11:45:07.384Z,943.49
2018-05-01T11:46:07.336Z,943.45
2018-05-01T11:47:07.397Z,943.50
2018-05-01T11:48:07.354Z,943.48
2018-05-01T11:49:07.432Z,943.53
2018-05-01T11:50:07.366Z,943.53
2018-05-01T11:51:07.397Z,943.50
2018-05-01T11:52:07.403Z,943.55
2018-05-01T11:53:07.496Z,943.52
2018-05-01T11:54:07.424Z,943.50
2018-05-01T11:55:07.435Z,943.48
2018-05-01T11:56:07.396Z,943.52
2018-05-01T11:57:07.584Z,943.50
2018-05-01T11:58:07.419Z,943.48
2018-05-01T11:59:07.435Z,943.44
2018-05-01T12:00:07.433Z,943.42
2018-05-01T12:01:08.228Z,943.50
2018-05-01T12:02:07.461Z,943.48
2018-05-01T12:03:07.512Z,943.52
2018-05-01T12:04:07.505Z,943.52
2018-05-01T12:05:07.485Z,943.49
2018-05-01T12:06:07.501Z,943.49
2018-05-01T12:07:07.511Z,943.53
2018-05-01T12:08:07.519Z,943.55
2018-05-01T12:09:07.837Z,943.51
2018-05-01T12:10:07.550Z,943.50
2018-05-01T12:11:07.567Z,943.48
2018-05-01T12:12:07.611Z,943.53
2018-05-01T12:13:07.596Z,943.52
2018-05-01T12:14:07.601Z,943.53
2018-05-01T12:15:07.622Z,943.47
2018-05-01T12:16:07.676Z,943.41
2018-05-01T12:17:07.674Z,943.39
2018-05-01T12:18:07.778Z,943.40
2018-05-01T12:19:07.749Z,943.34
2018-05-01T12:20:07.702Z,943.38
2018-05-01T12:21:07.710Z,943.48
2018-05-01T12:22:07.724Z,943.42
2018-05-01T12:23:08.763Z,943.41
2018-05-01T12:24:07.790Z,943.46
2018-05-01T12:25:07.895Z,943.48
2018-05-01T12:26:07.839Z,943.47
2018-05-01T12:27:07.801Z,943.52
2018-05-01T12:28:07.839Z,943.50
2018-05-01T12:29:07.818Z,943.51
2018-05-01T12:30:07.876Z,943.42
2018-05-01T12:31:07.866Z,943.40
2018-05-01T12:32:07.896Z,943.41
2018-05-01T12:33:07.860Z,943.36
2018-05-01T12:34:07.856Z,943.30
2018-05-01T12:35:07.904Z,943.32
2018-05-01T12:36:07.943Z,943.35
2018-05-01T12:37:08.109Z,943.40
2018-05-01T12:38:07.991Z,943.36
2018-05-01T12:39:07.967Z,943.37
2018-05-01T12:40:07.929Z,943.35
2018-05-01T12:41:07.950Z,943.31
2018-05-01T12:42:07.940Z,943.32
2018-05-01T12:43:07.955Z,943.30
2018-05-01T12:44:08.032Z,943.28
2018-05-01T12:45:07.957Z,943.26
2018-05-01T12:46:07.968Z,943.25
2018-05-01T12:47:08.280Z,943.23
2018-05-01T12:48:08.041Z,943.20
2018-05-01T12:49:08.051Z,943.17
2018-05-01T12:50:08.113Z,943.13
2018-05-01T12:51:07.983Z,943.13
2018-05-01T12:52:07.966Z,943.10
2018-05-01T12:53:08.019Z,943.10
2018-05-01T12:54:08.008Z,943.10
2018-05-01T12:55:08.252Z,943.03
2018-05-01T12:56:08.066Z,943.06
2018-05-01T12:57:08.096Z,943.07
2018-05-01T12:58:08.020Z,943.07
2018-05-01T12:59:08.077Z,943.05
2018-05-01T13:00:08.036Z,943.06
2018-05-01T13:01:08.042Z,943.06
2018-05-01T13:02:08.052Z,943.08
2018-05-01T13:03:08.056Z,943.07
2018-05-01T13:04:07.993Z,943.09
2018-05-01T13:05:08.110Z,943.14
2018-05-01T13:06:08.051Z,943.11
2018-05-01T13:07:08.151Z,943.09
2018-05-01T13:08:08.041Z,943.08
2018-05-01T13:09:08.025Z,943.04
2018-05-01T13:10:08.048Z,943.04
2018-05-01T13:11:08.029Z,943.02
2018-05-01T13:12:08.021Z,943.03